createdAt,value
2023-10-29T00:00:09.453Z,15.50
2023-10-29T00:02:39.294Z,15.70
2023-10-29T00:05:06.381Z,15.60
2023-10-29T00:07:33.233Z,15.70
2023-10-29T00:10:00.083Z,16.40
2023-10-29T00:12:26.913Z,15.70
2023-10-29T00:14:53.723Z,15.70
2023-10-29T00:17:20.662Z,15.70
2023-10-29T00:19:47.626Z,15.70
2023-10-29T00:22:14.433Z,15.60
2023-10-29T00:24:41.611Z,15.70
2023-10-29T00:27:08.443Z,15.70
2023-10-29T00:29:35.332Z,15.80
2023-10-29T00:32:02.204Z,15.60
2023-10-29T00:34:29.118Z,15.90
2023-10-29T00:36:55.847Z,15.80
2023-10-29T00:39:24.033Z,15.80
2023-10-29T00:41:50.850Z,15.90
2023-10-29T00:44:17.752Z,15.90
2023-10-29T00:46:44.812Z,15.80
2023-10-29T00:49:11.666Z,15.90
2023-10-29T00:51:38.673Z,15.80
2023-10-29T00:54:06.814Z,15.90
2023-10-29T00:56:34.047Z,15.90
2023-10-29T00:59:01.644Z,15.80
2023-10-29T01:01:28.595Z,15.80
2023-10-29T01:03:56.010Z,15.90
2023-10-29T01:06:23.213Z,16.60
2023-10-29T01:08:51.493Z,15.90
2023-10-29T01:11:18.629Z,16.00
2023-10-29T01:13:45.414Z,15.80
2023-10-29T01:16:12.716Z,16.50
2023-10-29T01:18:39.517Z,16.00
2023-10-29T01:21:06.360Z,15.90
2023-10-29T01:23:33.297Z,15.90
2023-10-29T01:26:00.589Z,16.00
2023-10-29T01:28:27.685Z,15.90
2023-10-29T01:30:54.801Z,16.10
2023-10-29T01:33:21.710Z,15.90
2023-10-29T01:35:48.744Z,15.90
2023-10-29T01:38:15.639Z,17.00
2023-10-29T01:40:42.645Z,17.00
2023-10-29T01:43:09.821Z,16.50
2023-10-29T01:45:38.719Z,16.80
2023-10-29T01:48:05.778Z,16.00
2023-10-29T01:50:32.665Z,16.10
2023-10-29T01:52:59.676Z,16.30
2023-10-29T01:55:26.437Z,16.00
2023-10-29T01:57:53.240Z,15.90
2023-10-29T02:00:20.725Z,15.90
2023-10-29T02:02:48.662Z,16.10
2023-10-29T02:05:15.610Z,16.00
2023-10-29T02:07:42.380Z,16.10
2023-10-29T02:10:09.320Z,16.00
2023-10-29T02:12:36.155Z,16.20
2023-10-29T02:15:03.117Z,16.00
2023-10-29T02:17:30.453Z,16.20
2023-10-29T02:19:57.461Z,16.30
2023-10-29T02:22:25.122Z,16.10
2023-10-29T02:24:52.462Z,16.10
2023-10-29T02:27:19.211Z,16.20
2023-10-29T02:29:46.503Z,16.10
2023-10-29T02:32:13.428Z,16.20
2023-10-29T02:34:40.211Z,16.20
2023-10-29T02:37:07.091Z,16.20
2023-10-29T02:39:33.969Z,16.20
2023-10-29T02:42:00.957Z,16.30
2023-10-29T02:44:27.914Z,16.10
2023-10-29T02:46:55.156Z,16.20
2023-10-29T02:49:22.002Z,16.10
2023-10-29T02:51:48.771Z,16.20
2023-10-29T02:54:15.577Z,16.10
2023-10-29T02:56:42.363Z,16.10
2023-10-29T02:59:10.858Z,16.10
2023-10-29T03:01:38.346Z,16.10
2023-10-29T03:04:06.574Z,16.30
2023-10-29T03:06:33.710Z,16.20
2023-10-29T03:09:00.673Z,16.30
2023-10-29T03:11:27.548Z,16.30
2023-10-29T03:13:54.462Z,16.30
2023-10-29T03:16:21.268Z,16.20
2023-10-29T03:18:48.665Z,16.40
2023-10-29T03:21:17.768Z,16.50
2023-10-29T03:23:44.828Z,17.60
2023-10-29T03:26:11.940Z,16.50
2023-10-29T03:28:40.990Z,16.50
2023-10-29T03:31:12.964Z,16.40
2023-10-29T03:33:39.777Z,16.60
2023-10-29T03:36:07.645Z,16.30
2023-10-29T03:38:34.621Z,16.50
2023-10-29T03:41:01.968Z,16.40
2023-10-29T03:43:28.703Z,16.50
2023-10-29T03:45:55.924Z,16.50
2023-10-29T03:48:22.926Z,16.50
2023-10-29T03:50:49.944Z,16.80
2023-10-29T03:53:16.841Z,16.60
2023-10-29T03:55:43.673Z,17.40
2023-10-29T03:58:10.735Z,16.60
2023-10-29T04:00:37.583Z,16.60
2023-10-29T04:03:04.485Z,16.70
2023-10-29T04:05:34.261Z,16.60
2023-10-29T04:08:01.086Z,16.70
2023-10-29T04:10:27.934Z,16.50
2023-10-29T04:12:55.613Z,16.80
2023-10-29T04:15:22.405Z,16.60
2023-10-29T04:17:50.873Z,16.70
2023-10-29T04:20:17.848Z,16.70
2023-10-29T04:22:44.904Z,16.70
2023-10-29T04:25:11.635Z,16.70
2023-10-29T04:27:38.441Z,16.60
2023-10-29T04:30:05.961Z,16.60
2023-10-29T04:32:33.211Z,16.70
2023-10-29T04:34:59.996Z,16.70
2023-10-29T04:37:26.883Z,16.50
2023-10-29T04:39:53.663Z,16.70
2023-10-29T04:42:20.416Z,16.50
2023-10-29T04:44:47.494Z,16.60
2023-10-29T04:47:14.779Z,16.40
2023-10-29T04:49:41.620Z,16.50
2023-10-29T04:52:08.367Z,16.40
2023-10-29T04:54:35.170Z,16.50
2023-10-29T04:57:02.020Z,16.50
2023-10-29T04:59:28.976Z,16.50
2023-10-29T05:01:55.826Z,16.60
2023-10-29T05:04:22.740Z,16.60
2023-10-29T05:06:49.522Z,16.60
2023-10-29T05:09:16.316Z,16.60
2023-10-29T05:11:43.166Z,16.60
2023-10-29T05:14:10.247Z,16.70
2023-10-29T05:16:37.254Z,16.50
2023-10-29T05:19:04.341Z,16.60
2023-10-29T05:21:31.141Z,17.10
2023-10-29T05:23:57.960Z,16.40
2023-10-29T05:26:24.910Z,16.50
2023-10-29T05:28:51.695Z,17.00
2023-10-29T05:31:18.511Z,16.50
2023-10-29T05:33:45.318Z,16.60
2023-10-29T05:36:12.081Z,16.30
2023-10-29T05:38:38.848Z,16.20
2023-10-29T05:41:05.587Z,16.20
2023-10-29T05:43:34.850Z,16.20
2023-10-29T05:46:02.160Z,16.10
2023-10-29T05:48:29.173Z,16.10
2023-10-29T05:50:56.326Z,16.90
2023-10-29T05:53:23.174Z,16.20
2023-10-29T05:55:49.940Z,16.90
2023-10-29T05:58:16.762Z,16.00
2023-10-29T06:00:43.601Z,16.10
2023-10-29T06:03:10.526Z,16.10
2023-10-29T06:05:37.458Z,15.90
2023-10-29T06:08:06.319Z,16.00
2023-10-29T06:10:33.149Z,16.10
2023-10-29T06:13:02.663Z,16.10
2023-10-29T06:15:29.549Z,16.00
2023-10-29T06:17:56.519Z,16.10
2023-10-29T06:20:23.649Z,16.40
2023-10-29T06:22:50.470Z,16.00
2023-10-29T06:25:18.089Z,16.00
2023-10-29T06:27:45.030Z,16.10
2023-10-29T06:30:12.569Z,16.70
2023-10-29T06:32:39.751Z,16.10
2023-10-29T06:35:07.580Z,16.00
2023-10-29T06:37:34.386Z,16.00
2023-10-29T06:40:01.626Z,15.90
2023-10-29T06:42:28.438Z,15.90
2023-10-29T06:44:55.243Z,15.90
2023-10-29T06:47:22.065Z,15.90
2023-10-29T06:49:48.834Z,15.90
2023-10-29T06:52:15.581Z,15.80
2023-10-29T06:54:42.310Z,15.70
2023-10-29T06:57:09.134Z,15.90
2023-10-29T06:59:36.037Z,15.70
2023-10-29T07:02:02.830Z,15.70
2023-10-29T07:04:29.757Z,15.80
2023-10-29T07:06:56.693Z,15.70
2023-10-29T07:09:23.686Z,15.70
2023-10-29T07:11:50.818Z,15.60
2023-10-29T07:14:17.698Z,15.70
2023-10-29T07:16:47.260Z,16.30
2023-10-29T07:19:14.705Z,15.70
2023-10-29T07:21:42.237Z,15.90
2023-10-29T07:24:09.694Z,15.70
2023-10-29T07:26:36.647Z,15.80
2023-10-29T07:29:03.475Z,15.70
2023-10-29T07:31:33.054Z,15.70
2023-10-29T07:33:59.810Z,15.70
2023-10-29T07:36:26.617Z,15.60
2023-10-29T07:38:53.509Z,15.70
2023-10-29T07:41:21.048Z,15.70
2023-10-29T07:43:48.804Z,15.80
2023-10-29T07:46:16.284Z,15.70
2023-10-29T07:48:43.365Z,15.70
2023-10-29T07:51:11.514Z,15.60
2023-10-29T07:53:38.513Z,15.60
2023-10-29T07:56:09.900Z,15.70
2023-10-29T07:58:37.980Z,15.70
2023-10-29T08:01:11.707Z,15.70
2023-10-29T08:03:39.573Z,15.90
2023-10-29T08:06:07.044Z,15.70
2023-10-29T08:08:34.161Z,15.90
2023-10-29T08:11:01.005Z,15.80
2023-10-29T08:13:27.797Z,16.00
2023-10-29T08:15:55.845Z,16.00
2023-10-29T08:18:22.895Z,16.00
2023-10-29T08:20:50.176Z,16.20
2023-10-29T08:23:17.219Z,16.30
2023-10-29T08:25:44.017Z,16.30
2023-10-29T08:28:10.805Z,16.40
2023-10-29T08:30:37.657Z,16.50
2023-10-29T08:33:04.526Z,16.70
2023-10-29T08:35:31.430Z,16.70
2023-10-29T08:37:58.595Z,16.70
2023-10-29T08:40:25.389Z,16.70
2023-10-29T08:42:52.117Z,16.70
2023-10-29T08:45:27.368Z,16.80
2023-10-29T08:48:06.002Z,16.80
2023-10-29T08:50:32.816Z,16.80
2023-10-29T08:52:59.582Z,16.60
2023-10-29T08:55:27.061Z,16.60
2023-10-29T08:57:53.894Z,16.80
2023-10-29T09:00:21.108Z,16.60
2023-10-29T09:02:48.325Z,16.70
2023-10-29T09:05:16.303Z,16.50
2023-10-29T09:07:43.359Z,16.70
2023-10-29T09:10:10.684Z,16.50
2023-10-29T09:12:38.201Z,16.70
2023-10-29T09:15:05.509Z,16.60
2023-10-29T09:17:32.358Z,16.70
2023-10-29T09:20:00.612Z,16.60
2023-10-29T09:22:27.666Z,16.70
2023-10-29T09:24:54.463Z,16.70
2023-10-29T09:27:21.247Z,17.30
2023-10-29T09:29:50.025Z,16.90
2023-10-29T09:32:17.589Z,16.90
2023-10-29T09:34:44.355Z,17.00
2023-10-29T09:37:11.095Z,16.90
2023-10-29T09:39:38.422Z,16.80
2023-10-29T09:42:10.201Z,16.80
2023-10-29T09:44:41.784Z,17.00
2023-10-29T09:47:18.455Z,16.90
2023-10-29T09:49:45.867Z,17.00
2023-10-29T09:52:14.258Z,17.00
2023-10-29T09:54:42.081Z,17.00
2023-10-29T09:57:09.054Z,17.00
2023-10-29T09:59:36.424Z,17.10
2023-10-29T10:02:04.223Z,17.10
2023-10-29T10:04:31.245Z,17.10
2023-10-29T10:07:00.690Z,17.20
2023-10-29T10:09:27.627Z,17.80
2023-10-29T10:12:05.537Z,17.20
2023-10-29T10:14:33.817Z,17.70
2023-10-29T10:17:09.090Z,17.30
2023-10-29T10:19:36.661Z,17.50
2023-10-29T10:22:05.104Z,18.00
2023-10-29T10:24:50.377Z,17.70
2023-10-29T10:27:17.378Z,17.60
2023-10-29T10:29:44.270Z,17.70
2023-10-29T10:32:12.535Z,18.40
2023-10-29T10:34:52.020Z,17.70
2023-10-29T10:37:18.934Z,18.50
2023-10-29T10:39:45.699Z,18.30
2023-10-29T10:42:12.495Z,18.10
2023-10-29T10:44:43.718Z,17.80
2023-10-29T10:47:11.305Z,18.00
2023-10-29T10:49:41.970Z,18.00
2023-10-29T10:52:11.589Z,18.40
2023-10-29T10:54:40.205Z,18.90
2023-10-29T10:57:09.208Z,18.10
2023-10-29T10:59:36.630Z,18.80
2023-10-29T11:02:08.755Z,18.20
2023-10-29T11:04:36.302Z,18.00
2023-10-29T11:07:04.031Z,17.80
2023-10-29T11:09:30.829Z,17.70
2023-10-29T11:11:58.433Z,18.50
2023-10-29T11:14:26.304Z,17.70
2023-10-29T11:16:58.304Z,18.60
2023-10-29T11:19:34.418Z,17.90
2023-10-29T11:22:21.554Z,17.70
2023-10-29T11:25:09.162Z,18.20
2023-10-29T11:27:47.683Z,18.20
2023-10-29T11:30:18.903Z,17.60
2023-10-29T11:32:47.643Z,17.60
2023-10-29T11:35:20.771Z,17.60
2023-10-29T11:37:49.885Z,17.70
2023-10-29T11:40:37.349Z,17.50
2023-10-29T11:43:33.305Z,17.60
2023-10-29T11:46:05.709Z,18.20
2023-10-29T11:48:32.889Z,17.70
2023-10-29T11:51:11.669Z,17.70
2023-10-29T11:53:39.283Z,17.90
2023-10-29T11:56:11.161Z,17.60
2023-10-29T11:58:38.287Z,17.70
2023-10-29T12:01:05.555Z,17.70
2023-10-29T12:03:32.688Z,17.50
2023-10-29T12:05:59.899Z,17.50
2023-10-29T12:08:27.323Z,17.40
2023-10-29T12:10:56.423Z,17.70
2023-10-29T12:13:23.651Z,17.50
2023-10-29T12:15:59.311Z,17.30
2023-10-29T12:18:27.089Z,17.70
2023-10-29T12:21:15.152Z,17.80
2023-10-29T12:23:42.009Z,18.00
2023-10-29T12:26:11.774Z,18.50
2023-10-29T12:28:38.876Z,18.00
2023-10-29T12:31:08.609Z,17.90
2023-10-29T12:33:37.150Z,18.80
2023-10-29T12:36:14.584Z,17.80
2023-10-29T12:38:42.589Z,17.80
2023-10-29T12:41:12.332Z,18.40
2023-10-29T12:43:41.153Z,17.80
2023-10-29T12:46:12.713Z,17.40
2023-10-29T12:48:58.279Z,17.40
2023-10-29T12:51:29.514Z,17.40
2023-10-29T12:54:29.433Z,17.50
2023-10-29T12:56:59.399Z,17.30
2023-10-29T12:59:28.804Z,18.00
2023-10-29T13:01:58.142Z,18.40
2023-10-29T13:04:26.116Z,18.00
2023-10-29T13:06:56.961Z,17.40
2023-10-29T13:09:26.012Z,17.60
2023-10-29T13:11:53.892Z,17.60
2023-10-29T13:14:23.242Z,18.60
2023-10-29T13:16:54.458Z,17.40
2023-10-29T13:19:25.241Z,17.60
2023-10-29T13:21:53.432Z,17.60
2023-10-29T13:24:24.109Z,18.10
2023-10-29T13:26:52.330Z,17.50
2023-10-29T13:29:20.901Z,17.50
2023-10-29T13:31:48.299Z,17.70
2023-10-29T13:34:16.811Z,17.30
2023-10-29T13:36:43.767Z,17.30
2023-10-29T13:39:15.249Z,17.20
2023-10-29T13:41:45.471Z,17.30
2023-10-29T13:44:17.142Z,17.10
2023-10-29T13:46:44.258Z,17.60
2023-10-29T13:49:13.124Z,17.10
2023-10-29T13:51:42.279Z,17.10
2023-10-29T13:54:09.852Z,15.10
2023-10-29T13:56:36.681Z,17.20
2023-10-29T13:59:03.459Z,17.20
2023-10-29T14:01:30.641Z,17.90
2023-10-29T14:03:58.657Z,17.10
2023-10-29T14:06:27.421Z,17.00
2023-10-29T14:08:54.295Z,16.90
2023-10-29T14:11:21.216Z,16.70
2023-10-29T14:13:51.022Z,16.70
2023-10-29T14:16:19.517Z,17.40
2023-10-29T14:18:47.120Z,16.60
2023-10-29T14:21:13.924Z,16.60
2023-10-29T14:23:41.357Z,17.30
2023-10-29T14:26:08.141Z,17.30
2023-10-29T14:28:34.959Z,16.80
2023-10-29T14:31:01.838Z,16.80
2023-10-29T14:33:28.944Z,16.80
2023-10-29T14:35:59.080Z,16.80
2023-10-29T14:38:27.253Z,17.00
2023-10-29T14:40:55.901Z,16.80
2023-10-29T14:43:23.353Z,16.90
2023-10-29T14:45:54.276Z,17.10
2023-10-29T14:48:21.564Z,16.80
2023-10-29T14:50:49.687Z,16.60
2023-10-29T14:53:16.721Z,16.50
2023-10-29T14:55:47.760Z,16.60
2023-10-29T14:58:15.636Z,16.50
2023-10-29T15:00:43.608Z,16.40
2023-10-29T15:03:11.212Z,17.20
2023-10-29T15:05:38.335Z,16.40
2023-10-29T15:08:06.384Z,16.40
2023-10-29T15:10:33.201Z,16.40
2023-10-29T15:13:00.062Z,16.40
2023-10-29T15:15:29.808Z,16.90
2023-10-29T15:17:57.994Z,16.80
2023-10-29T15:20:27.241Z,16.40
2023-10-29T15:22:54.234Z,16.40
2023-10-29T15:25:20.938Z,17.30
2023-10-29T15:27:47.781Z,16.50
2023-10-29T15:30:14.693Z,16.40
2023-10-29T15:32:41.678Z,16.50
2023-10-29T15:35:09.228Z,16.40
2023-10-29T15:37:36.023Z,16.40
2023-10-29T15:40:03.821Z,16.30
2023-10-29T15:42:30.757Z,16.30
2023-10-29T15:44:57.527Z,16.30
2023-10-29T15:47:26.267Z,16.20
2023-10-29T15:49:54.183Z,16.10
2023-10-29T15:52:21.456Z,16.10
2023-10-29T15:54:49.032Z,15.90
2023-10-29T15:57:16.168Z,15.90
2023-10-29T15:59:43.482Z,16.10
2023-10-29T16:02:10.274Z,15.80
2023-10-29T16:04:38.803Z,15.50
2023-10-29T16:07:06.382Z,15.60
2023-10-29T16:09:33.723Z,15.70
2023-10-29T16:12:06.353Z,15.50
2023-10-29T16:14:36.965Z,15.40
2023-10-29T16:17:04.316Z,15.30
2023-10-29T16:19:31.726Z,15.30
2023-10-29T16:21:58.817Z,15.40
2023-10-29T16:24:27.984Z,15.40
2023-10-29T16:26:54.895Z,15.30
2023-10-29T16:29:21.695Z,15.20
2023-10-29T16:31:48.575Z,15.30
2023-10-29T16:34:15.456Z,15.10
2023-10-29T16:36:42.279Z,15.10
2023-10-29T16:39:09.041Z,15.20
2023-10-29T16:41:35.812Z,15.20
2023-10-29T16:44:03.869Z,15.20
2023-10-29T16:46:33.430Z,15.30
2023-10-29T16:49:02.637Z,15.30
2023-10-29T16:51:30.106Z,15.30
2023-10-29T16:53:57.046Z,15.30
2023-10-29T16:56:23.886Z,15.40
2023-10-29T16:58:50.696Z,15.30
2023-10-29T17:01:18.766Z,15.40
2023-10-29T17:03:46.886Z,15.50
2023-10-29T17:06:15.368Z,15.50
2023-10-29T17:08:42.463Z,15.50
2023-10-29T17:11:09.196Z,15.50
2023-10-29T17:13:36.083Z,15.50
2023-10-29T17:16:04.982Z,15.70
2023-10-29T17:18:32.533Z,15.70
2023-10-29T17:21:00.748Z,15.50
2023-10-29T17:23:28.082Z,15.60
2023-10-29T17:25:56.091Z,15.60
2023-10-29T17:28:22.981Z,15.80
2023-10-29T17:30:49.834Z,15.60
2023-10-29T17:33:17.050Z,15.50
2023-10-29T17:35:43.975Z,15.60
2023-10-29T17:38:10.760Z,16.00
2023-10-29T17:40:37.605Z,15.50
2023-10-29T17:43:04.934Z,15.40
2023-10-29T17:45:38.819Z,15.50
2023-10-29T17:48:06.315Z,15.50
2023-10-29T17:50:33.241Z,15.40
2023-10-29T17:53:01.832Z,16.20
2023-10-29T17:55:28.947Z,15.40
2023-10-29T17:57:55.843Z,15.40
2023-10-29T18:00:23.030Z,15.40
2023-10-29T18:02:49.923Z,15.60
2023-10-29T18:05:16.771Z,15.60
2023-10-29T18:07:43.812Z,15.40
2023-10-29T18:10:11.507Z,15.40
2023-10-29T18:12:38.315Z,15.30
2023-10-29T18:15:05.568Z,15.40
2023-10-29T18:17:33.093Z,15.50
2023-10-29T18:20:00.056Z,15.30
2023-10-29T18:22:26.809Z,16.20
2023-10-29T18:24:53.569Z,15.40
2023-10-29T18:27:20.493Z,16.50
2023-10-29T18:29:47.464Z,15.40
2023-10-29T18:32:14.266Z,15.40
2023-10-29T18:34:41.052Z,15.30
2023-10-29T18:37:07.951Z,15.40
2023-10-29T18:39:34.894Z,15.40
2023-10-29T18:42:01.766Z,15.50
2023-10-29T18:44:31.401Z,15.90
2023-10-29T18:47:01.908Z,15.50
2023-10-29T18:49:29.510Z,15.30
2023-10-29T18:51:57.381Z,15.10
2023-10-29T18:54:25.184Z,14.90
2023-10-29T18:56:53.383Z,15.00
2023-10-29T18:59:20.867Z,15.00
2023-10-29T19:01:47.674Z,15.90
2023-10-29T19:04:15.879Z,14.90
2023-10-29T19:06:43.407Z,14.90
2023-10-29T19:09:11.444Z,14.90
2023-10-29T19:11:38.850Z,14.80
2023-10-29T19:14:05.990Z,14.80
2023-10-29T19:16:33.441Z,15.50
2023-10-29T19:19:02.181Z,14.70
2023-10-29T19:21:29.222Z,14.70
2023-10-29T19:23:56.463Z,14.70
2023-10-29T19:26:23.332Z,15.40
2023-10-29T19:28:50.128Z,15.20
2023-10-29T19:31:25.527Z,14.80
2023-10-29T19:33:54.966Z,14.70
2023-10-29T19:36:22.172Z,14.70
2023-10-29T19:38:49.000Z,14.70
2023-10-29T19:41:15.903Z,15.00
2023-10-29T19:43:42.728Z,14.70
2023-10-29T19:46:09.486Z,14.70
2023-10-29T19:48:36.267Z,14.70
2023-10-29T19:51:05.215Z,14.70
2023-10-29T19:53:33.859Z,14.80
2023-10-29T19:56:05.585Z,15.00
2023-10-29T19:58:32.470Z,14.70
2023-10-29T20:01:12.152Z,14.70
2023-10-29T20:03:40.680Z,15.50
2023-10-29T20:06:12.323Z,15.70
2023-10-29T20:08:40.604Z,14.80
2023-10-29T20:11:09.348Z,14.70
2023-10-29T20:13:41.103Z,14.80
2023-10-29T20:16:08.933Z,14.80
2023-10-29T20:18:37.054Z,14.80
2023-10-29T20:21:05.097Z,14.70
2023-10-29T20:23:31.958Z,14.80
2023-10-29T20:25:58.841Z,14.80
2023-10-29T20:28:25.722Z,14.80
2023-10-29T20:30:52.471Z,14.80
2023-10-29T20:33:19.549Z,14.80
2023-10-29T20:35:46.456Z,14.80
2023-10-29T20:38:13.259Z,14.70
2023-10-29T20:40:40.001Z,14.70
2023-10-29T20:43:06.729Z,14.80
2023-10-29T20:45:33.573Z,14.80
2023-10-29T20:48:00.544Z,14.80
2023-10-29T20:50:27.351Z,14.80
2023-10-29T20:52:54.133Z,14.70
2023-10-29T20:55:23.563Z,15.80
2023-10-29T20:57:50.422Z,15.20
2023-10-29T21:00:17.372Z,14.70
2023-10-29T21:02:44.385Z,14.80
2023-10-29T21:05:11.674Z,14.70
2023-10-29T21:07:38.581Z,14.80
2023-10-29T21:10:06.248Z,14.90
2023-10-29T21:12:33.049Z,14.80
2023-10-29T21:14:59.880Z,14.70
2023-10-29T21:17:26.927Z,14.70
2023-10-29T21:19:53.854Z,14.70
2023-10-29T21:22:22.545Z,14.80
2023-10-29T21:24:49.388Z,14.70
2023-10-29T21:27:16.300Z,14.80
2023-10-29T21:29:43.127Z,14.70
2023-10-29T21:32:09.934Z,14.60
2023-10-29T21:34:36.735Z,14.60
2023-10-29T21:37:03.767Z,15.60
2023-10-29T21:39:31.159Z,14.70
2023-10-29T21:41:57.926Z,14.60
2023-10-29T21:44:24.690Z,14.60
2023-10-29T21:46:51.536Z,14.60
2023-10-29T21:49:18.523Z,14.60
2023-10-29T21:51:45.367Z,14.60
2023-10-29T21:54:12.141Z,14.60
2023-10-29T21:56:38.935Z,14.60
2023-10-29T21:59:05.774Z,14.60
2023-10-29T22:01:32.509Z,14.60
2023-10-29T22:03:59.604Z,14.60
2023-10-29T22:06:26.640Z,14.50
2023-10-29T22:08:53.505Z,14.50
2023-10-29T22:11:20.373Z,14.60
2023-10-29T22:13:47.210Z,14.50
2023-10-29T22:16:18.178Z,14.50
2023-10-29T22:18:45.148Z,14.60
2023-10-29T22:21:13.229Z,14.50
2023-10-29T22:23:41.035Z,15.50
2023-10-29T22:26:11.238Z,14.50
2023-10-29T22:28:38.592Z,14.50
2023-10-29T22:31:05.934Z,15.10
2023-10-29T22:33:34.710Z,14.50
2023-10-29T22:36:03.862Z,14.40
2023-10-29T22:38:30.636Z,14.40
2023-10-29T22:41:04.802Z,14.40
2023-10-29T22:43:32.747Z,14.40
2023-10-29T22:46:01.285Z,14.60
2023-10-29T22:48:28.561Z,14.30
2023-10-29T22:50:56.276Z,14.60
2023-10-29T22:53:26.669Z,14.30
2023-10-29T22:55:53.711Z,14.30
2023-10-29T22:58:20.505Z,14.20
2023-10-29T23:00:47.427Z,14.10
2023-10-29T23:03:14.407Z,14.10
2023-10-29T23:05:41.261Z,14.10
2023-10-29T23:08:07.973Z,14.10
2023-10-29T23:10:35.333Z,14.10
2023-10-29T23:13:02.087Z,14.00
2023-10-29T23:15:28.861Z,14.00
2023-10-29T23:17:55.691Z,14.80
2023-10-29T23:20:22.599Z,14.00
2023-10-29T23:22:49.406Z,16.00
2023-10-29T23:25:16.262Z,14.00
2023-10-29T23:27:43.186Z,13.80
2023-10-29T23:30:10.353Z,13.90
2023-10-29T23:32:37.224Z,13.90
2023-10-29T23:35:04.539Z,13.90
2023-10-29T23:37:31.611Z,13.80
2023-10-29T23:39:59.103Z,13.90
2023-10-29T23:42:25.975Z,13.70
2023-10-29T23:44:52.817Z,13.70
2023-10-29T23:47:19.562Z,13.70
2023-10-29T23:49:46.378Z,13.60
2023-10-29T23:52:13.192Z,13.60
2023-10-29T23:54:41.497Z,13.60
2023-10-29T23:57:09.056Z,13.60
2023-10-29T23:59:35.989Z,14.10
